Time;durP1;ratioP1;P1;durP2;ratioP2;P2;SDS_P1;SDS_P2;PMS_P1;PMS_P2;Temp;Humidity;BMP_temperature;BMP_pressure;BME280_temperature;BME280_humidity;BME280_pressure;Samples;Min_cycle;Max_cycle;Signal;HPM_P1;HPM_P2
2024/02/26 00:03:42;;;;;;;4.10;1.77;;;;;;;9.77;56.14;99807.69;4939594;28;97809;-80
2024/02/26 00:06:09;;;;;;;3.17;1.75;;;;;;;9.78;56.11;99818.19;4926175;28;121987;-80
2024/02/26 00:08:37;;;;;;;3.40;1.80;;;;;;;9.81;56.32;99812.72;4920219;28;113705;-80
2024/02/26 00:11:05;;;;;;;3.00;2.00;;;;;;;9.84;56.12;99815.19;4931815;28;113596;-80
2024/02/26 00:13:32;;;;;;;3.10;2.00;;;;;;;9.86;55.88;99805.38;4931709;28;123210;-79
2024/02/26 00:16:00;;;;;;;3.25;1.80;;;;;;;9.88;55.61;99803.47;4929426;28;122597;-79
2024/02/26 00:18:55;;;;;;;3.72;1.98;;;;;;;9.88;55.79;99808.75;4929726;28;114365;-79
2024/02/26 00:21:23;;;;;;;2.85;1.80;;;;;;;9.88;55.52;99803.47;4929543;28;114730;-79
2024/02/26 00:23:55;;;;;;;4.45;1.90;;;;;;;9.88;55.81;99819.34;4928221;28;123891;-79
2024/02/26 00:26:22;;;;;;;2.67;1.73;;;;;;;9.92;55.84;99826.16;4929581;28;124314;-79
2024/02/26 00:28:49;;;;;;;3.60;1.90;;;;;;;9.95;55.93;99825.16;4926934;28;114174;-79
2024/02/26 00:31:21;;;;;;;2.42;1.65;;;;;;;9.99;55.75;99831.09;4927958;28;113158;-80
2024/02/26 00:33:48;;;;;;;4.43;2.00;;;;;;;10.03;55.92;99832.63;4951405;28;123546;-80
2024/02/26 03:36:38;;;;;;;2.80;2.05;;;;;;;9.14;58.84;99844.69;4892357;28;112783;-70
2024/02/26 03:39:07;;;;;;;3.85;2.22;;;;;;;9.16;58.69;99842.81;4903754;28;113867;-70
2024/02/26 03:41:35;;;;;;;3.45;2.10;;;;;;;9.19;58.99;99851.50;4888615;28;124270;-70
2024/02/26 03:44:03;;;;;;;3.13;2.17;;;;;;;9.22;58.93;99851.34;4892050;28;124096;-71
2024/02/26 03:46:30;;;;;;;3.15;2.15;;;;;;;9.24;59.00;99849.47;4887536;28;114612;-70
2024/02/26 03:48:58;;;;;;;4.15;2.13;;;;;;;9.25;58.91;99857.31;4892355;28;113989;-70
2024/02/26 03:51:26;;;;;;;3.70;2.20;;;;;;;9.25;59.10;99859.97;4892017;28;123980;-70
2024/02/26 03:53:54;;;;;;;2.80;2.05;;;;;;;9.27;58.94;99870.44;4902769;28;123702;-70
2024/02/26 03:56:22;;;;;;;4.57;2.10;;;;;;;9.25;59.08;99867.00;4889146;28;113859;-70
2024/02/26 03:58:49;;;;;;;3.40;2.30;;;;;;;9.25;58.96;99870.53;4884616;28;114432;-71
2024/02/26 04:01:16;;;;;;;3.03;2.72;;;;;;;9.25;59.50;99872.28;4886552;28;124397;-70
2024/02/26 04:03:44;;;;;;;3.03;2.33;;;;;;;9.23;59.13;99868.88;4887047;28;124794;-71
2024/02/26 04:06:14;;;;;;;3.10;2.30;;;;;;;9.21;59.07;99881.31;4891290;28;113756;-71
2024/02/26 04:08:41;;;;;;;3.88;2.60;;;;;;;9.21;58.99;99891.91;4891877;28;113481;-70
2024/02/26 04:11:09;;;;;;;4.57;2.95;;;;;;;9.19;59.37;99883.22;4891109;28;124098;-70
2024/02/26 04:13:39;;;;;;;5.32;3.00;;;;;;;9.16;58.95;99885.06;4890989;28;123532;-70
2024/02/26 04:16:07;;;;;;;4.03;2.45;;;;;;;9.15;59.17;99888.69;4890289;28;114214;-70
2024/02/26 04:18:34;;;;;;;4.32;2.88;;;;;;;9.12;59.39;99883.53;4883703;28;113450;-70
2024/02/26 04:21:02;;;;;;;4.18;2.75;;;;;;;9.09;59.28;99883.69;4890048;28;124109;-70
2024/02/26 04:23:32;;;;;;;4.80;2.40;;;;;;;9.07;59.46;99885.56;4891661;28;124245;-70
2024/02/26 04:26:00;;;;;;;4.88;2.72;;;;;;;9.07;59.77;99880.28;4882746;28;114394;-70
2024/02/26 04:28:28;;;;;;;4.93;2.60;;;;;;;9.06;59.52;99886.53;4890920;28;114254;-70
2024/02/26 04:30:56;;;;;;;4.43;2.60;;;;;;;9.07;59.59;99880.28;4888811;28;123826;-71
2024/02/26 04:33:23;;;;;;;4.18;2.58;;;;;;;9.07;59.65;99884.72;4891278;28;124625;-70
2024/02/26 04:35:51;;;;;;;4.72;2.60;;;;;;;9.05;59.57;99887.44;4890799;28;114859;-71
2024/02/26 04:38:18;;;;;;;4.35;2.50;;;;;;;9.05;59.63;99892.72;4888781;28;113465;-71
2024/02/26 04:40:46;;;;;;;3.40;2.53;;;;;;;9.03;59.78;99894.59;4889221;28;123347;-70
2024/02/26 04:43:15;;;;;;;4.97;2.58;;;;;;;9.03;59.56;99904.34;4890502;28;123627;-70
2024/02/26 04:45:42;;;;;;;3.35;2.33;;;;;;;9.02;59.75;99897.31;4868050;28;115918;-70
2024/02/26 04:48:10;;;;;;;2.75;2.38;;;;;;;9.03;60.02;99894.59;4885838;28;115319;-70
2024/02/26 04:50:37;;;;;;;3.90;2.40;;;;;;;9.04;59.88;99906.91;4892483;28;123866;-70
2024/02/26 04:53:05;;;;;;;4.95;2.60;;;;;;;9.04;59.96;99906.91;4885351;28;123862;-70
2024/02/26 04:55:32;;;;;;;3.10;2.28;;;;;;;9.04;59.93;99904.25;4888844;28;113708;-70
2024/02/26 04:57:59;;;;;;;3.30;2.20;;;;;;;9.06;60.12;99907.66;4889583;28;113669;-70
2024/02/26 05:00:27;;;;;;;4.40;2.30;;;;;;;9.06;59.70;99910.31;4875468;28;124129;-70
2024/02/26 05:02:54;;;;;;;3.75;2.38;;;;;;;9.08;60.07;99908.44;4886942;28;124219;-70
2024/02/26 05:05:22;;;;;;;4.97;2.40;;;;;;;9.11;59.92;99908.25;4887877;28;113784;-71
2024/02/26 05:07:49;;;;;;;3.47;2.38;;;;;;;9.12;59.84;99915.25;4906778;28;113114;-70
2024/02/26 05:10:16;;;;;;;3.40;2.28;;;;;;;9.13;60.00;99916.94;4891434;28;123662;-70
2024/02/26 05:12:45;;;;;;;4.00;2.20;;;;;;;9.14;59.76;99913.38;4886418;28;124029;-70
2024/02/26 05:15:17;;;;;;;3.22;2.20;;;;;;;9.16;59.74;99905.38;4892418;28;113794;-70
2024/02/26 05:17:45;;;;;;;3.30;2.30;;;;;;;9.16;59.93;99906.22;4890063;28;114430;-70
2024/02/26 05:20:13;;;;;;;3.38;2.33;;;;;;;9.16;59.76;99911.50;4907479;28;122821;-70
2024/02/26 05:22:40;;;;;;;2.40;2.10;;;;;;;9.18;59.88;99907.94;4882046;28;123996;-70
2024/02/26 05:25:08;;;;;;;3.72;2.25;;;;;;;9.20;59.95;99901.63;4890218;28;114340;-70
2024/02/26 05:27:35;;;;;;;3.15;2.22;;;;;;;9.21;60.23;99913.03;4873624;28;113597;-70
2024/02/26 05:30:03;;;;;;;3.22;1.90;;;;;;;9.22;59.93;99912.09;4888847;28;124274;-69
2024/02/26 05:32:30;;;;;;;4.05;2.17;;;;;;;9.21;59.80;99907.75;4882448;28;123357;-70
2024/02/26 05:34:58;;;;;;;3.45;2.25;;;;;;;9.22;59.72;99909.47;4886344;28;115327;-70
2024/02/26 05:37:25;;;;;;;3.70;2.17;;;;;;;9.23;59.93;99913.78;4891697;28;115006;-70
2024/02/26 05:39:52;;;;;;;5.15;2.35;;;;;;;9.23;59.99;99916.44;4891631;28;124056;-70
2024/02/26 05:42:20;;;;;;;3.88;2.60;;;;;;;9.23;59.78;99927.00;4889975;28;123977;-70
2024/02/26 05:44:48;;;;;;;3.38;2.42;;;;;;;9.22;59.75;99925.31;4893302;28;114724;-70
2024/02/26 05:47:15;;;;;;;4.25;2.67;;;;;;;9.19;59.74;99921.03;4893025;28;114050;-72
2024/02/26 05:49:43;;;;;;;4.30;2.63;;;;;;;9.19;59.79;99930.75;4894349;28;124037;-72
2024/02/26 05:52:10;;;;;;;4.55;2.67;;;;;;;9.18;59.68;99934.34;4908595;28;123172;-72
2024/02/26 05:54:37;;;;;;;6.43;2.78;;;;;;;9.16;59.41;99937.91;4890283;28;114530;-72
2024/02/26 05:57:04;;;;;;;4.93;2.83;;;;;;;9.16;59.65;99943.19;4907874;28;113697;-72
2024/02/26 05:59:32;;;;;;;3.65;2.97;;;;;;;9.13;59.64;99943.34;4893368;28;124434;-72
2024/02/26 06:01:59;;;;;;;4.68;3.38;;;;;;;9.12;59.94;99952.22;4903984;28;124043;-72
2024/02/26 06:04:27;;;;;;;4.45;3.05;;;;;;;9.13;59.91;99958.34;4907100;28;113519;-72
2024/02/26 06:06:54;;;;;;;5.53;3.17;;;;;;;9.10;59.72;99951.47;4882569;28;113805;-71
2024/02/26 06:09:22;;;;;;;4.10;3.20;;;;;;;9.08;59.68;99950.69;4888818;28;123487;-72
2024/02/26 06:11:50;;;;;;;5.47;3.20;;;;;;;9.07;59.90;99954.25;4890044;28;123824;-72
2024/02/26 06:14:18;;;;;;;6.25;3.47;;;;;;;9.05;59.70;99960.56;4888079;28;113288;-71
2024/02/26 06:16:46;;;;;;;4.30;3.20;;;;;;;9.04;59.85;99954.44;4890548;28;113856;-71
2024/02/26 06:19:13;;;;;;;5.07;2.50;;;;;;;9.03;59.97;99965.06;4889068;28;124567;-72
2024/02/26 06:21:41;;;;;;;4.38;2.55;;;;;;;9.00;59.89;99968.72;4890033;28;123975;-72
2024/02/26 06:24:08;;;;;;;4.38;2.40;;;;;;;9.00;59.80;99971.34;4890743;28;115348;-72
2024/02/26 06:26:36;;;;;;;4.80;2.30;;;;;;;8.98;59.86;99965.31;4886551;28;115048;-72
2024/02/26 06:29:04;;;;;;;3.40;2.33;;;;;;;8.97;59.52;99974.16;4891882;28;124058;-71
2024/02/26 06:31:31;;;;;;;3.63;2.42;;;;;;;8.96;59.57;99981.22;4887833;28;123830;-72
2024/02/26 06:33:58;;;;;;;4.25;2.53;;;;;;;8.94;59.57;99982.25;4891060;28;114396;-72
2024/02/26 06:36:25;;;;;;;4.93;2.45;;;;;;;8.93;59.80;99983.19;4893175;28;113807;-71
2024/02/26 06:38:53;;;;;;;4.95;2.70;;;;;;;8.91;59.75;99979.75;4892214;28;124102;-71
2024/02/26 06:41:27;;;;;;;5.57;2.60;;;;;;;8.90;59.70;99989.47;4891499;28;123506;-71
2024/02/26 06:43:54;;;;;;;3.65;2.40;;;;;;;8.90;59.87;99988.63;4891479;28;113486;-71
2024/02/26 06:46:23;;;;;;;4.30;2.10;;;;;;;8.89;59.76;99992.19;4887910;28;114059;-71
2024/02/26 06:48:50;;;;;;;5.72;2.15;;;;;;;8.88;59.60;99990.50;4888875;28;125467;-71
2024/02/26 06:51:22;;;;;;;6.30;2.83;;;;;;;8.87;59.65;99994.06;4886584;28;124296;-72
2024/02/26 06:53:49;;;;;;;6.43;2.40;;;;;;;8.85;59.63;100002.03;4892584;28;114323;-71
2024/02/26 06:56:18;;;;;;;4.40;2.35;;;;;;;8.84;59.80;100004.78;4885289;28;112890;-71
2024/02/26 06:58:45;;;;;;;3.42;2.08;;;;;;;8.82;59.47;99998.75;4893526;28;124043;-71
2024/02/26 07:01:17;;;;;;;4.22;2.80;;;;;;;8.81;59.56;100005.78;4890432;28;124743;-71
2024/02/26 07:03:45;;;;;;;4.93;2.22;;;;;;;8.81;59.69;100004.94;4908079;28;114409;-72
2024/02/26 07:06:13;;;;;;;3.85;2.40;;;;;;;8.80;59.75;99992.66;4883915;28;113284;-71
2024/02/26 07:08:41;;;;;;;4.38;2.22;;;;;;;8.80;59.62;100013.78;4892545;28;122886;-71
2024/02/26 07:11:09;;;;;;;3.05;2.15;;;;;;;8.80;60.04;100008.50;4891644;28;124796;-71
2024/02/26 07:13:37;;;;;;;3.58;2.00;;;;;;;8.81;59.65;100020.78;4893031;28;115167;-71
2024/02/26 07:16:05;;;;;;;4.53;2.00;;;;;;;8.80;59.84;100024.34;4909341;28;114216;-71
2024/02/26 07:18:33;;;;;;;2.90;2.10;;;;;;;8.80;60.04;100019.94;4891678;28;124415;-71
2024/02/26 07:21:03;;;;;;;3.97;2.22;;;;;;;8.80;59.91;100024.34;4906569;28;124167;-71
2024/02/26 07:23:31;;;;;;;4.22;2.15;;;;;;;8.81;59.94;100036.63;4891380;28;114198;-71
2024/02/26 07:25:59;;;;;;;2.70;2.00;;;;;;;8.81;59.92;100042.75;4904319;28;114067;-71
2024/02/26 07:28:26;;;;;;;5.30;2.30;;;;;;;8.81;59.93;100041.91;4889869;28;124540;-70
2024/02/26 07:30:53;;;;;;;4.40;2.33;;;;;;;8.82;60.12;100048.91;4891788;28;123525;-71
2024/02/26 07:33:21;;;;;;;3.85;2.35;;;;;;;8.84;59.92;100047.03;4886707;28;113845;-71
2024/02/26 07:35:48;;;;;;;3.72;2.30;;;;;;;8.84;60.27;100054.97;4891882;28;114021;-71
2024/02/26 07:38:17;;;;;;;4.63;2.08;;;;;;;8.85;60.25;100054.00;4888617;28;124418;-71
2024/02/26 07:40:58;;;;;;;3.83;2.30;;;;;;;8.85;60.10;100054.00;4888663;28;124546;-71
2024/02/26 07:43:30;;;;;;;6.75;2.22;;;;;;;8.85;60.28;100054.00;4902112;28;112637;-71
2024/02/26 07:45:57;;;;;;;3.35;2.00;;;;;;;8.84;60.14;100044.41;4889659;28;114256;-70
2024/02/26 07:48:26;;;;;;;3.90;2.20;;;;;;;8.84;60.27;100052.31;4906224;28;123205;-71
2024/02/26 07:50:54;;;;;;;3.92;2.25;;;;;;;8.85;60.40;100064.56;4890685;28;123715;-71
2024/02/26 07:53:21;;;;;;;2.70;2.10;;;;;;;8.84;60.25;100058.44;4904194;28;114170;-71
2024/02/26 07:55:49;;;;;;;4.25;2.25;;;;;;;8.85;60.28;100070.69;4906610;28;112877;-71
2024/02/26 07:58:16;;;;;;;4.03;2.20;;;;;;;8.83;60.27;100079.66;4891409;28;124653;-71
2024/02/26 08:00:43;;;;;;;4.75;2.05;;;;;;;8.83;60.35;100077.84;4892887;28;123724;-71
2024/02/26 08:03:11;;;;;;;3.25;2.40;;;;;;;8.86;60.46;100082.13;4904946;28;114168;-71
2024/02/26 08:05:40;;;;;;;3.75;2.20;;;;;;;8.86;60.30;100082.13;4890948;28;115348;-71
2024/02/26 08:08:07;;;;;;;3.45;2.40;;;;;;;8.87;60.38;100089.13;4886360;28;124149;-71
2024/02/26 08:10:35;;;;;;;3.13;2.13;;;;;;;8.87;60.27;100084.72;4907274;28;124213;-71
2024/02/26 08:13:05;;;;;;;3.88;2.25;;;;;;;8.90;60.15;100088.97;4890708;28;114502;-71
2024/02/26 08:15:34;;;;;;;3.58;2.00;;;;;;;8.92;60.14;100092.38;4888356;28;115694;-71
2024/02/26 08:18:03;;;;;;;3.17;2.50;;;;;;;8.94;60.54;100090.53;4889744;28;126421;-71
2024/02/26 08:20:31;;;;;;;3.80;2.30;;;;;;;8.96;60.41;100099.22;4903234;28;123967;-71
2024/02/26 08:22:59;;;;;;;3.97;2.60;;;;;;;8.96;60.27;100093.94;4889941;28;113978;-71
2024/02/26 08:25:26;;;;;;;4.22;2.40;;;;;;;8.98;60.45;100113.19;4905589;28;113721;-70
2024/02/26 08:27:54;;;;;;;4.47;2.65;;;;;;;8.95;60.54;100114.22;4889096;28;124407;-71
2024/02/26 08:30:22;;;;;;;4.78;2.50;;;;;;;8.96;60.26;100120.34;4892897;28;124124;-71
2024/02/26 08:32:49;;;;;;;3.83;2.72;;;;;;;8.98;60.56;100118.47;4889652;28;114461;-71
2024/02/26 08:35:20;;;;;;;4.65;2.70;;;;;;;8.99;60.47;100125.47;4888540;28;113707;-71
2024/02/26 08:37:47;;;;;;;4.03;2.42;;;;;;;9.00;60.51;100127.19;4893070;28;123994;-70
2024/02/26 08:40:17;;;;;;;7.38;2.78;;;;;;;9.01;60.51;100134.19;4892067;28;97082;-70
2024/02/26 08:42:44;;;;;;;4.40;2.60;;;;;;;9.02;60.36;100135.88;4887170;28;113832;-71
2024/02/26 08:45:12;;;;;;;4.00;2.40;;;;;;;9.03;60.51;100132.31;4890098;28;114518;-70
2024/02/26 08:47:40;;;;;;;4.75;2.42;;;;;;;9.05;60.15;100135.72;4904755;28;124356;-70
2024/02/26 08:50:10;;;;;;;4.82;2.60;;;;;;;9.06;60.33;100142.75;4892920;28;123894;-72
2024/02/26 08:52:38;;;;;;;4.10;2.80;;;;;;;9.07;60.35;100147.06;4898126;28;114470;-71
2024/02/26 08:55:06;;;;;;;4.40;2.58;;;;;;;9.06;60.25;100142.75;4890619;28;114916;-70
2024/02/26 08:57:33;;;;;;;4.60;2.58;;;;;;;9.08;60.44;100151.44;4882392;28;124092;-70
2024/02/26 09:00:01;;;;;;;4.00;2.53;;;;;;;9.07;60.31;100143.59;4886955;28;123873;-71
2024/02/26 09:02:29;;;;;;;5.10;2.70;;;;;;;9.06;60.48;100140.09;4892179;28;114106;-71
2024/02/26 09:04:57;;;;;;;4.10;2.47;;;;;;;9.08;60.53;100148.81;4891475;28;113172;-70
2024/02/26 09:07:24;;;;;;;4.50;2.50;;;;;;;9.09;60.59;100147.00;4892723;28;124161;-71
2024/02/26 09:09:52;;;;;;;4.20;2.88;;;;;;;9.09;60.42;100149.66;4890142;28;124241;-71
2024/02/26 09:12:21;;;;;;;5.13;2.97;;;;;;;9.09;60.47;100163.69;4880223;28;113157;-71
2024/02/26 09:14:48;;;;;;;6.18;2.67;;;;;;;9.10;60.32;100165.44;4894769;28;113355;-71
2024/02/26 09:17:15;;;;;;;4.72;2.92;;;;;;;9.11;60.39;100161.84;4892625;28;123740;-71
2024/02/26 09:19:44;;;;;;;5.28;3.10;;;;;;;9.09;60.18;100168.97;4887768;28;124245;-71
2024/02/26 09:22:11;;;;;;;4.82;2.50;;;;;;;9.09;60.41;100168.13;4907702;28;113420;-71
2024/02/26 09:24:42;;;;;;;4.65;2.83;;;;;;;9.09;60.64;100168.97;4897147;28;113801;-71
2024/02/26 09:27:09;;;;;;;4.25;2.78;;;;;;;9.11;60.41;100182.13;4891829;28;124012;-71
2024/02/26 09:29:37;;;;;;;4.53;2.80;;;;;;;9.12;60.48;100187.34;4895147;28;124914;-71
2024/02/26 09:32:32;;;;;;;5.53;3.10;;;;;;;9.13;60.69;100185.53;4908452;28;113809;-71
2024/02/26 09:35:00;;;;;;;6.97;2.90;;;;;;;9.14;60.86;100188.13;4889914;28;113843;-71
2024/02/26 09:37:27;;;;;;;6.13;3.33;;;;;;;9.14;60.42;100188.13;4888914;28;123938;-71
2024/02/26 09:39:54;;;;;;;5.07;3.17;;;;;;;9.14;60.57;100198.69;4895957;28;123893;-71
2024/02/26 09:42:25;;;;;;;6.47;3.17;;;;;;;9.15;60.70;100189.84;4886424;28;115161;-71
2024/02/26 09:44:57;;;;;;;5.78;3.50;;;;;;;9.18;60.43;100209.09;4892930;28;114004;-73
2024/02/26 09:47:28;;;;;;;5.15;3.20;;;;;;;9.16;60.69;100211.81;4888027;28;124033;-71
2024/02/26 09:49:56;;;;;;;6.45;3.60;;;;;;;9.16;60.76;100212.66;4908697;28;123203;-71
2024/02/26 09:52:34;;;;;;;6.60;3.60;;;;;;;9.16;60.70;100215.31;4891212;28;114402;-71
2024/02/26 09:55:03;;;;;;;6.88;3.72;;;;;;;9.18;60.73;100214.38;4894249;28;113555;-71
2024/02/26 09:57:31;;;;;;;6.25;3.80;;;;;;;9.19;60.79;100221.38;4888766;28;123167;-71
2024/02/26 10:00:05;;;;;;;5.93;3.67;;;;;;;9.21;60.64;100224.78;4904395;28;123140;-73
2024/02/26 10:02:38;;;;;;;4.97;3.57;;;;;;;9.21;60.90;100230.06;4887287;28;117718;-71
2024/02/26 10:05:10;;;;;;;6.25;4.28;;;;;;;9.22;60.72;100237.09;4891857;28;114648;-71
2024/02/26 10:07:37;;;;;;;5.80;4.15;;;;;;;9.21;60.62;100240.63;4892914;28;124218;-71
2024/02/26 10:10:05;;;;;;;7.38;4.03;;;;;;;9.23;60.56;100241.41;4909153;28;122049;-72
2024/02/26 10:12:33;;;;;;;7.53;4.32;;;;;;;9.24;60.74;100245.78;4890146;28;114392;-71
2024/02/26 10:15:01;;;;;;;8.32;4.75;;;;;;;9.26;60.91;100251.84;4904232;28;113996;-71
2024/02/26 10:17:28;;;;;;;7.75;4.50;;;;;;;9.27;60.58;100256.22;4892021;28;124147;-71
2024/02/26 10:20:11;;;;;;;8.43;4.70;;;;;;;9.28;60.67;100263.19;4891589;28;124778;-71
2024/02/26 10:22:39;;;;;;;8.07;4.95;;;;;;;9.31;60.72;100268.34;4893572;28;114215;-71
2024/02/26 10:25:07;;;;;;;9.15;4.95;;;;;;;9.33;60.75;100269.13;4898821;28;113080;-70
2024/02/26 10:27:36;;;;;;;9.32;4.75;;;;;;;9.33;60.78;100271.75;4892829;28;124380;-71
2024/02/26 10:30:22;;;;;;;7.75;4.88;;;;;;;9.33;60.68;100287.63;4891406;28;124619;-71
2024/02/26 10:32:51;;;;;;;8.23;5.00;;;;;;;9.33;60.51;100282.34;4889680;28;115486;-71
2024/02/26 10:35:20;;;;;;;10.52;5.53;;;;;;;9.32;60.56;100286.78;4889241;28;115156;-71
2024/02/26 10:37:49;;;;;;;8.30;4.95;;;;;;;9.32;60.77;100286.78;4873556;28;123897;-70
2024/02/26 10:40:18;;;;;;;11.60;4.95;;;;;;;9.32;61.04;100292.06;4888513;28;123167;-70
2024/02/26 10:42:46;;;;;;;8.50;4.75;;;;;;;9.34;60.59;100291.94;4905471;28;114447;-71
2024/02/26 10:45:14;;;;;;;9.25;5.00;;;;;;;9.34;60.68;100294.59;4896002;28;113903;-70
2024/02/26 10:47:42;;;;;;;8.07;4.60;;;;;;;9.34;60.50;100310.44;4901668;28;123496;-70
2024/02/26 10:50:13;;;;;;;9.38;5.07;;;;;;;9.35;60.74;100312.19;4908166;28;123533;-70
2024/02/26 10:52:42;;;;;;;10.00;5.60;;;;;;;9.35;60.68;100306.91;4895498;28;113794;-70
2024/02/26 10:55:19;;;;;;;9.45;5.18;;;;;;;9.35;60.91;100312.19;4891430;28;113948;-70
2024/02/26 10:57:50;;;;;;;10.30;5.15;;;;;;;9.33;60.76;100314.03;4892095;28;123797;-71
2024/02/26 11:00:18;;;;;;;8.60;5.43;;;;;;;9.33;60.67;100330.75;4887288;28;123540;-71
2024/02/26 11:02:48;;;;;;;9.23;5.03;;;;;;;9.30;60.79;100314.19;4890498;28;115487;-70
2024/02/26 11:05:17;;;;;;;9.00;5.53;;;;;;;9.31;61.02;100321.19;4891432;28;113212;-70
2024/02/26 11:07:46;;;;;;;9.52;4.90;;;;;;;9.31;60.95;100322.03;4889186;28;124538;-70
2024/02/26 11:10:15;;;;;;;10.00;4.97;;;;;;;9.31;61.02;100321.19;4888243;28;124441;-71
2024/02/26 11:12:42;;;;;;;9.65;4.85;;;;;;;9.33;60.84;100324.63;4891197;28;114307;-70
2024/02/26 11:15:11;;;;;;;9.38;5.05;;;;;;;9.33;61.09;100330.75;4889495;28;113965;-71
2024/02/26 11:17:39;;;;;;;8.70;4.57;;;;;;;9.34;60.89;100331.59;4891348;28;124506;-71
2024/02/26 11:20:10;;;;;;;9.85;4.65;;;;;;;9.34;61.08;100337.75;4891493;28;122819;-71
2024/02/26 11:22:38;;;;;;;10.98;5.50;;;;;;;9.37;61.17;100342.03;4890790;28;115261;-70
2024/02/26 11:25:07;;;;;;;11.05;5.40;;;;;;;9.38;60.90;100348.16;4891036;28;114492;-70
2024/02/26 11:27:49;;;;;;;10.52;5.45;;;;;;;9.37;61.07;100336.75;4888633;28;124224;-70
2024/02/26 11:30:18;;;;;;;9.52;5.05;;;;;;;9.37;61.12;100342.03;4892137;28;123727;-70
2024/02/26 11:32:47;;;;;;;13.70;5.57;;;;;;;9.37;60.84;100342.03;4892966;28;114289;-70
2024/02/26 11:35:17;;;;;;;10.18;5.18;;;;;;;9.38;60.89;100338.47;4900725;28;113365;-70
2024/02/26 11:37:53;;;;;;;11.77;6.40;;;;;;;9.39;60.92;100340.16;4890218;28;124151;-71
2024/02/26 11:40:23;;;;;;;13.70;6.07;;;;;;;9.39;61.18;100348.09;4890034;28;124271;-71
2024/02/26 11:42:53;;;;;;;13.00;7.03;;;;;;;9.39;61.40;100344.59;4889997;28;114413;-71
2024/02/26 11:45:38;;;;;;;12.77;6.18;;;;;;;9.39;61.02;100340.16;4881394;28;114059;-71
2024/02/26 11:48:12;;;;;;;;;;;;;;;9.37;61.01;100352.59;4890497;28;123965;-70
2024/02/26 11:50:41;;;;;;;15.57;6.97;;;;;;;9.37;60.94;100349.97;4889366;28;125672;-70
2024/02/26 11:53:31;;;;;;;13.10;7.28;;;;;;;9.36;61.36;100353.53;4888107;28;114325;-70
2024/02/26 11:56:17;;;;;;;13.15;6.68;;;;;;;9.36;61.14;100356.16;4895387;28;113752;-71
2024/02/26 11:58:44;;;;;;;14.77;7.75;;;;;;;9.36;61.20;100361.44;4890402;28;124584;-70
2024/02/26 12:01:41;;;;;;;15.15;7.22;;;;;;;9.36;61.12;100361.44;4905872;28;123624;-71
2024/02/26 12:04:21;;;;;;;13.88;6.97;;;;;;;9.36;61.29;100361.44;4891028;28;114770;-71
2024/02/26 12:06:52;;;;;;;14.73;7.18;;;;;;;9.37;61.41;100363.16;4887150;28;113547;-71
2024/02/26 12:10:12;;;;;;;14.93;6.75;;;;;;;9.36;61.45;100374.66;4880478;28;124057;-71
2024/02/26 12:12:42;;;;;;;15.23;7.30;;;;;;;9.39;61.41;100376.31;4864545;28;123391;-71
2024/02/26 12:15:11;;;;;;;16.45;8.10;;;;;;;9.40;61.29;100378.91;4888303;28;115162;-71
2024/02/26 12:17:38;;;;;;;16.58;7.65;;;;;;;9.39;61.46;100377.16;4891833;28;115200;-71
2024/02/26 12:20:12;;;;;;;17.85;8.38;;;;;;;9.39;61.34;100387.75;4889357;28;123358;-71
2024/02/26 12:22:44;;;;;;;16.98;8.45;;;;;;;9.41;61.46;100392.97;4890668;28;123833;-71
2024/02/26 12:25:13;;;;;;;16.73;8.23;;;;;;;9.41;61.13;100391.16;4877903;28;113324;-72
2024/02/26 12:27:41;;;;;;;15.35;8.00;;;;;;;9.41;61.29;100396.44;4906037;28;113298;-71
2024/02/26 12:30:09;;;;;;;14.95;7.70;;;;;;;9.40;61.50;100404.44;4893633;28;123519;-71
2024/02/26 12:32:37;;;;;;;17.25;8.68;;;;;;;9.39;61.56;100408.88;4887289;28;123436;-72
2024/02/26 12:35:06;;;;;;;14.75;8.10;;;;;;;9.39;61.63;100402.75;4891100;28;114262;-71
2024/02/26 12:37:36;;;;;;;16.25;7.63;;;;;;;9.37;61.43;100407.25;4888231;28;114980;-71
2024/02/26 12:40:09;;;;;;;15.98;7.78;;;;;;;9.39;61.37;100418.59;4885969;28;123589;-71
2024/02/26 12:42:41;;;;;;;14.25;7.00;;;;;;;9.40;61.42;100425.59;4903969;28;123510;-72
2024/02/26 12:45:12;;;;;;;14.48;7.97;;;;;;;9.39;61.45;100435.31;4888881;28;114556;-71
2024/02/26 12:47:41;;;;;;;14.15;6.93;;;;;;;9.37;61.38;100426.59;4873183;28;113596;-72
2024/02/26 12:50:10;;;;;;;16.40;7.60;;;;;;;9.38;61.57;100438.91;4888343;28;123927;-72
2024/02/26 12:52:43;;;;;;;12.70;6.82;;;;;;;9.36;61.65;100440.72;4888658;28;124246;-71
2024/02/26 12:55:20;;;;;;;14.27;6.90;;;;;;;9.33;61.71;100441.75;4905005;28;116978;-72
2024/02/26 12:57:50;;;;;;;13.77;6.90;;;;;;;9.35;61.43;100449.59;4888941;28;113506;-71
2024/02/26 13:00:23;;;;;;;11.32;6.13;;;;;;;9.34;61.32;100447.88;4890241;28;123103;-71
2024/02/26 13:02:51;;;;;;;14.73;6.35;;;;;;;9.35;61.53;100454.88;4891829;28;124667;-71
2024/02/26 13:05:20;;;;;;;11.35;5.95;;;;;;;9.35;61.59;100457.53;4889945;28;115042;-72
2024/02/26 13:07:48;;;;;;;13.02;6.28;;;;;;;9.34;61.36;100458.44;4902360;28;114285;-72
2024/02/26 13:10:18;;;;;;;10.30;5.72;;;;;;;9.35;61.61;100465.47;4906043;28;122833;-72
2024/02/26 13:12:50;;;;;;;11.57;5.70;;;;;;;9.35;61.50;100468.09;4887858;28;124007;-72
2024/02/26 13:15:19;;;;;;;12.15;5.68;;;;;;;9.34;61.53;100471.66;4888878;28;114040;-72
2024/02/26 13:17:48;;;;;;;10.73;5.65;;;;;;;9.35;61.57;100479.53;4904552;28;113663;-72
2024/02/26 13:20:28;;;;;;;12.75;5.45;;;;;;;9.37;61.22;100478.63;4900848;28;124323;-72
2024/02/26 13:23:02;;;;;;;11.43;5.03;;;;;;;9.37;61.55;100489.19;4888050;28;122293;-72
2024/02/26 13:25:32;;;;;;;10.55;5.57;;;;;;;9.37;61.40;100490.03;4890838;28;114410;-72
2024/02/26 13:28:13;;;;;;;9.25;4.57;;;;;;;9.37;61.60;100486.53;4900657;28;114493;-72
2024/02/26 13:30:49;;;;;;;10.70;4.95;;;;;;;9.38;61.51;100489.13;4907565;28;123327;-72
2024/02/26 13:33:17;;;;;;;10.43;4.93;;;;;;;9.39;61.51;100492.63;4887967;28;123608;-72
2024/02/26 13:35:45;;;;;;;10.05;5.07;;;;;;;9.40;61.62;100499.59;4891313;28;114419;-72
2024/02/26 13:38:12;;;;;;;9.55;4.78;;;;;;;9.40;61.64;100516.34;4887737;28;113199;-72
2024/02/26 13:40:40;;;;;;;9.32;5.07;;;;;;;9.40;61.76;100511.06;4888576;28;124321;-71
2024/02/26 13:43:07;;;;;;;9.82;5.15;;;;;;;9.41;61.38;100507.47;4888892;28;124217;-72
2024/02/26 13:45:37;;;;;;;9.38;4.75;;;;;;;9.41;61.68;100512.75;4889835;28;113766;-72
2024/02/26 13:48:07;;;;;;;7.70;4.50;;;;;;;9.42;61.43;100525.06;4891825;28;114094;-71
2024/02/26 13:50:34;;;;;;;8.20;4.22;;;;;;;9.42;61.65;100519.75;4886503;28;125352;-71
2024/02/26 13:53:02;;;;;;;8.98;4.07;;;;;;;9.43;61.58;100529.41;4902280;28;124277;-71
2024/02/26 13:55:31;;;;;;;8.70;4.35;;;;;;;9.45;61.50;100524.88;4904164;28;115558;-73
2024/02/26 13:58:01;;;;;;;7.22;4.15;;;;;;;9.46;61.58;100531.91;4873604;28;114165;-72
2024/02/26 14:00:33;;;;;;;8.82;4.45;;;;;;;9.47;61.54;100536.25;4893551;28;124353;-72
2024/02/26 14:03:02;;;;;;;8.10;4.32;;;;;;;9.49;61.46;100531.78;4894441;28;123973;-72
2024/02/26 14:05:30;;;;;;;8.70;4.78;;;;;;;9.51;61.67;100545.78;4892506;28;113695;-73
2024/02/26 14:07:57;;;;;;;9.68;4.57;;;;;;;9.51;61.65;100551.06;4906933;28;113076;-72
2024/02/26 14:10:26;;;;;;;9.57;4.57;;;;;;;9.51;61.53;100535.22;4892871;28;123975;-72
2024/02/26 14:12:53;;;;;;;7.75;4.38;;;;;;;9.52;61.42;100547.47;4891864;28;122822;-72
2024/02/26 14:15:20;;;;;;;9.48;4.60;;;;;;;9.52;61.51;100552.78;4891869;28;114250;-72
2024/02/26 14:17:54;;;;;;;8.23;4.40;;;;;;;9.53;61.41;100549.22;4893485;28;112818;-71
2024/02/26 14:20:25;;;;;;;9.10;4.25;;;;;;;9.52;61.56;100563.34;4892149;28;124207;-72
2024/02/26 14:22:55;;;;;;;7.00;4.18;;;;;;;9.54;61.50;100566.78;4890697;28;124003;-72
2024/02/26 14:25:23;;;;;;;8.68;4.20;;;;;;;9.54;61.62;100561.50;4893346;28;114168;-71
2024/02/26 14:27:58;;;;;;;9.05;4.75;;;;;;;9.55;61.76;100559.72;4894224;28;114610;-72
2024/02/26 14:30:26;;;;;;;10.18;4.30;;;;;;;9.54;61.72;100572.06;4891653;28;126455;-72
2024/02/26 14:32:54;;;;;;;8.23;4.70;;;;;;;9.53;61.77;100570.38;4887777;28;124657;-72
2024/02/26 14:35:22;;;;;;;9.02;4.57;;;;;;;9.54;61.53;100577.34;4894689;28;114731;-72
2024/02/26 14:37:50;;;;;;;7.68;4.72;;;;;;;9.53;61.85;100580.94;4884251;28;113699;-72
2024/02/26 14:40:22;;;;;;;9.15;4.45;;;;;;;9.54;61.90;100598.50;4892758;28;124121;-72